sensor_id;sensor_type;location;lat;lon;timestamp;P1;durP1;ratioP1;P2;durP2;ratioP2
73850;SDS011;62190;51.548;5.688;2023-06-26T00:00:59;17.60;;;15.80;;
73850;SDS011;62190;51.548;5.688;2023-06-26T00:03:27;18.07;;;16.10;;
73850;SDS011;62190;51.548;5.688;2023-06-26T00:05:55;19.45;;;16.73;;
73850;SDS011;62190;51.548;5.688;2023-06-26T00:08:26;18.52;;;16.52;;
73850;SDS011;62190;51.548;5.688;2023-06-26T00:10:54;19.42;;;16.70;;
73850;SDS011;62190;51.548;5.688;2023-06-26T00:13:22;18.20;;;16.30;;
73850;SDS011;62190;51.548;5.688;2023-06-26T00:15:51;20.23;;;16.25;;
73850;SDS011;62190;51.548;5.688;2023-06-26T00:18:22;22.85;;;17.32;;
73850;SDS011;62190;51.548;5.688;2023-06-26T00:20:49;18.87;;;16.62;;
73850;SDS011;62190;51.548;5.688;2023-06-26T00:23:18;21.42;;;19.15;;
73850;SDS011;62190;51.548;5.688;2023-06-26T00:25:47;19.60;;;16.42;;
73850;SDS011;62190;51.548;5.688;2023-06-26T00:28:15;20.60;;;16.42;;
73850;SDS011;62190;51.548;5.688;2023-06-26T00:30:42;20.35;;;16.77;;
73850;SDS011;62190;51.548;5.688;2023-06-26T00:33:12;18.48;;;15.90;;
73850;SDS011;62190;51.548;5.688;2023-06-26T00:35:39;17.35;;;15.23;;
73850;SDS011;62190;51.548;5.688;2023-06-26T00:38:10;18.62;;;16.62;;
73850;SDS011;62190;51.548;5.688;2023-06-26T00:40:37;18.80;;;16.60;;
73850;SDS011;62190;51.548;5.688;2023-06-26T00:43:05;16.15;;;13.70;;
73850;SDS011;62190;51.548;5.688;2023-06-26T00:45:33;16.35;;;14.70;;
73850;SDS011;62190;51.548;5.688;2023-06-26T00:48:01;14.47;;;12.98;;
73850;SDS011;62190;51.548;5.688;2023-06-26T00:50:29;13.80;;;12.37;;
73850;SDS011;62190;51.548;5.688;2023-06-26T00:52:59;15.38;;;12.33;;
73850;SDS011;62190;51.548;5.688;2023-06-26T00:55:28;13.45;;;11.75;;
73850;SDS011;62190;51.548;5.688;2023-06-26T00:57:56;13.05;;;11.65;;
73850;SDS011;62190;51.548;5.688;2023-06-26T01:00:23;15.75;;;12.58;;
73850;SDS011;62190;51.548;5.688;2023-06-26T01:02:53;14.20;;;12.45;;
73850;SDS011;62190;51.548;5.688;2023-06-26T01:05:25;13.32;;;11.70;;
73850;SDS011;62190;51.548;5.688;2023-06-26T01:07:54;14.18;;;11.70;;
73850;SDS011;62190;51.548;5.688;2023-06-26T01:10:25;12.63;;;10.48;;
73850;SDS011;62190;51.548;5.688;2023-06-26T01:12:56;12.58;;;11.28;;
73850;SDS011;62190;51.548;5.688;2023-06-26T01:15:24;15.35;;;11.63;;
73850;SDS011;62190;51.548;5.688;2023-06-26T01:17:53;11.08;;;9.85;;
73850;SDS011;62190;51.548;5.688;2023-06-26T01:20:22;12.63;;;9.88;;
73850;SDS011;62190;51.548;5.688;2023-06-26T01:25:41;10.82;;;9.68;;
73850;SDS011;62190;51.548;5.688;2023-06-26T01:28:12;12.37;;;10.32;;
73850;SDS011;62190;51.548;5.688;2023-06-26T01:30:43;11.38;;;10.23;;
73850;SDS011;62190;51.548;5.688;2023-06-26T01:33:13;12.43;;;10.58;;
73850;SDS011;62190;51.548;5.688;2023-06-26T01:35:43;13.43;;;11.03;;
73850;SDS011;62190;51.548;5.688;2023-06-26T01:38:13;15.50;;;10.72;;
73850;SDS011;62190;51.548;5.688;2023-06-26T01:40:46;11.95;;;9.18;;
73850;SDS011;62190;51.548;5.688;2023-06-26T01:43:15;11.75;;;8.78;;
73850;SDS011;62190;51.548;5.688;2023-06-26T01:45:49;10.15;;;8.13;;
73850;SDS011;62190;51.548;5.688;2023-06-26T01:48:19;10.93;;;8.20;;
73850;SDS011;62190;51.548;5.688;2023-06-26T01:50:48;9.08;;;7.42;;
73850;SDS011;62190;51.548;5.688;2023-06-26T01:53:18;9.40;;;7.20;;
73850;SDS011;62190;51.548;5.688;2023-06-26T01:55:55;9.43;;;6.70;;
73850;SDS011;62190;51.548;5.688;2023-06-26T01:58:36;13.43;;;7.67;;
73850;SDS011;62190;51.548;5.688;2023-06-26T02:01:05;9.70;;;7.62;;
73850;SDS011;62190;51.548;5.688;2023-06-26T02:03:35;7.90;;;7.10;;
73850;SDS011;62190;51.548;5.688;2023-06-26T02:06:02;8.98;;;6.60;;
73850;SDS011;62190;51.548;5.688;2023-06-26T02:08:29;12.43;;;7.35;;
73850;SDS011;62190;51.548;5.688;2023-06-26T02:10:56;9.88;;;5.95;;
73850;SDS011;62190;51.548;5.688;2023-06-26T02:13:24;10.43;;;7.72;;
73850;SDS011;62190;51.548;5.688;2023-06-26T02:15:56;8.05;;;6.25;;
73850;SDS011;62190;51.548;5.688;2023-06-26T02:18:26;8.88;;;5.50;;
73850;SDS011;62190;51.548;5.688;2023-06-26T02:20:53;13.40;;;5.92;;
73850;SDS011;62190;51.548;5.688;2023-06-26T02:23:21;8.03;;;5.87;;
73850;SDS011;62190;51.548;5.688;2023-06-26T02:25:51;9.88;;;5.53;;
73850;SDS011;62190;51.548;5.688;2023-06-26T02:28:18;9.53;;;5.42;;
73850;SDS011;62190;51.548;5.688;2023-06-26T02:30:47;9.85;;;5.83;;
73850;SDS011;62190;51.548;5.688;2023-06-26T02:33:14;8.83;;;5.85;;
73850;SDS011;62190;51.548;5.688;2023-06-26T02:35:45;9.13;;;5.70;;
73850;SDS011;62190;51.548;5.688;2023-06-26T02:38:12;6.83;;;5.00;;
73850;SDS011;62190;51.548;5.688;2023-06-26T02:40:41;9.43;;;5.33;;
73850;SDS011;62190;51.548;5.688;2023-06-26T02:43:10;16.05;;;6.15;;
73850;SDS011;62190;51.548;5.688;2023-06-26T02:45:39;11.80;;;5.97;;
73850;SDS011;62190;51.548;5.688;2023-06-26T02:48:10;9.23;;;6.35;;
73850;SDS011;62190;51.548;5.688;2023-06-26T02:50:37;12.05;;;6.30;;
73850;SDS011;62190;51.548;5.688;2023-06-26T02:53:05;13.43;;;6.85;;
73850;SDS011;62190;51.548;5.688;2023-06-26T02:55:35;10.58;;;6.97;;
73850;SDS011;62190;51.548;5.688;2023-06-26T02:58:05;10.03;;;6.37;;
73850;SDS011;62190;51.548;5.688;2023-06-26T03:00:32;8.48;;;5.97;;
73850;SDS011;62190;51.548;5.688;2023-06-26T03:03:02;10.13;;;6.12;;
73850;SDS011;62190;51.548;5.688;2023-06-26T03:05:33;9.10;;;6.75;;
73850;SDS011;62190;51.548;5.688;2023-06-26T03:08:06;10.45;;;6.22;;
73850;SDS011;62190;51.548;5.688;2023-06-26T03:10:30;7.42;;;5.87;;
73850;SDS011;62190;51.548;5.688;2023-06-26T03:13:03;8.83;;;5.58;;
73850;SDS011;62190;51.548;5.688;2023-06-26T03:15:31;8.18;;;5.50;;
73850;SDS011;62190;51.548;5.688;2023-06-26T03:17:59;9.78;;;4.97;;
73850;SDS011;62190;51.548;5.688;2023-06-26T03:20:30;7.22;;;4.25;;
73850;SDS011;62190;51.548;5.688;2023-06-26T03:22:59;8.58;;;5.00;;
73850;SDS011;62190;51.548;5.688;2023-06-26T03:25:32;10.30;;;4.95;;
73850;SDS011;62190;51.548;5.688;2023-06-26T03:28:01;10.53;;;4.83;;
73850;SDS011;62190;51.548;5.688;2023-06-26T03:30:30;7.70;;;4.55;;
73850;SDS011;62190;51.548;5.688;2023-06-26T03:33:01;7.25;;;5.20;;
73850;SDS011;62190;51.548;5.688;2023-06-26T03:35:31;7.75;;;4.55;;
73850;SDS011;62190;51.548;5.688;2023-06-26T03:38:02;10.85;;;5.28;;
73850;SDS011;62190;51.548;5.688;2023-06-26T03:40:32;9.13;;;5.47;;
73850;SDS011;62190;51.548;5.688;2023-06-26T03:43:03;12.23;;;4.92;;
73850;SDS011;62190;51.548;5.688;2023-06-26T03:45:32;6.83;;;3.95;;
73850;SDS011;62190;51.548;5.688;2023-06-26T03:47:59;7.78;;;4.60;;
73850;SDS011;62190;51.548;5.688;2023-06-26T03:50:28;9.25;;;4.33;;
73850;SDS011;62190;51.548;5.688;2023-06-26T03:52:57;9.88;;;5.20;;
73850;SDS011;62190;51.548;5.688;2023-06-26T03:55:27;8.70;;;4.83;;
73850;SDS011;62190;51.548;5.688;2023-06-26T03:57:55;11.95;;;5.12;;
73850;SDS011;62190;51.548;5.688;2023-06-26T04:00:23;9.48;;;5.00;;
73850;SDS011;62190;51.548;5.688;2023-06-26T04:02:53;11.88;;;5.53;;
73850;SDS011;62190;51.548;5.688;2023-06-26T04:05:22;12.30;;;5.20;;
73850;SDS011;62190;51.548;5.688;2023-06-26T04:07:52;13.80;;;5.50;;
73850;SDS011;62190;51.548;5.688;2023-06-26T04:10:19;9.13;;;5.17;;
73850;SDS011;62190;51.548;5.688;2023-06-26T04:12:48;8.58;;;4.85;;
73850;SDS011;62190;51.548;5.688;2023-06-26T04:15:18;10.03;;;4.83;;
73850;SDS011;62190;51.548;5.688;2023-06-26T04:17:47;11.28;;;5.62;;
73850;SDS011;62190;51.548;5.688;2023-06-26T04:20:16;14.35;;;5.70;;
73850;SDS011;62190;51.548;5.688;2023-06-26T04:22:44;14.23;;;6.53;;
73850;SDS011;62190;51.548;5.688;2023-06-26T04:25:15;19.48;;;7.30;;
73850;SDS011;62190;51.548;5.688;2023-06-26T04:27:41;13.45;;;5.67;;
73850;SDS011;62190;51.548;5.688;2023-06-26T04:30:14;12.50;;;6.20;;
73850;SDS011;62190;51.548;5.688;2023-06-26T04:32:46;16.32;;;6.28;;
73850;SDS011;62190;51.548;5.688;2023-06-26T04:35:14;12.37;;;6.85;;
73850;SDS011;62190;51.548;5.688;2023-06-26T04:37:51;12.55;;;6.10;;
73850;SDS011;62190;51.548;5.688;2023-06-26T04:40:20;21.87;;;6.60;;
73850;SDS011;62190;51.548;5.688;2023-06-26T04:42:50;15.25;;;6.17;;
73850;SDS011;62190;51.548;5.688;2023-06-26T04:45:23;20.37;;;7.97;;
73850;SDS011;62190;51.548;5.688;2023-06-26T04:47:50;20.97;;;7.37;;
73850;SDS011;62190;51.548;5.688;2023-06-26T04:50:20;16.45;;;7.00;;
73850;SDS011;62190;51.548;5.688;2023-06-26T04:52:47;13.05;;;5.62;;
73850;SDS011;62190;51.548;5.688;2023-06-26T04:55:15;19.67;;;7.33;;
73850;SDS011;62190;51.548;5.688;2023-06-26T04:57:47;12.98;;;6.08;;
73850;SDS011;62190;51.548;5.688;2023-06-26T05:00:14;10.93;;;4.75;;
73850;SDS011;62190;51.548;5.688;2023-06-26T05:02:45;13.30;;;5.83;;
73850;SDS011;62190;51.548;5.688;2023-06-26T05:05:16;12.18;;;5.55;;
73850;SDS011;62190;51.548;5.688;2023-06-26T05:07:47;10.35;;;5.10;;
73850;SDS011;62190;51.548;5.688;2023-06-26T05:10:15;14.93;;;6.53;;
73850;SDS011;62190;51.548;5.688;2023-06-26T05:12:45;10.05;;;5.20;;
73850;SDS011;62190;51.548;5.688;2023-06-26T05:15:13;12.50;;;5.53;;
73850;SDS011;62190;51.548;5.688;2023-06-26T05:17:42;12.40;;;4.90;;
73850;SDS011;62190;51.548;5.688;2023-06-26T05:20:11;11.57;;;5.62;;
73850;SDS011;62190;51.548;5.688;2023-06-26T05:22:39;16.67;;;5.60;;
73850;SDS011;62190;51.548;5.688;2023-06-26T05:25:09;15.18;;;5.92;;
73850;SDS011;62190;51.548;5.688;2023-06-26T05:27:41;10.75;;;5.37;;
73850;SDS011;62190;51.548;5.688;2023-06-26T05:30:16;14.85;;;4.90;;
73850;SDS011;62190;51.548;5.688;2023-06-26T05:32:44;15.15;;;6.17;;
73850;SDS011;62190;51.548;5.688;2023-06-26T05:35:16;10.60;;;4.87;;
73850;SDS011;62190;51.548;5.688;2023-06-26T05:37:45;15.72;;;5.58;;
73850;SDS011;62190;51.548;5.688;2023-06-26T05:40:17;14.15;;;5.17;;
73850;SDS011;62190;51.548;5.688;2023-06-26T05:42:47;15.48;;;5.35;;
73850;SDS011;62190;51.548;5.688;2023-06-26T05:45:18;15.35;;;5.92;;
73850;SDS011;62190;51.548;5.688;2023-06-26T05:47:47;11.78;;;5.20;;
73850;SDS011;62190;51.548;5.688;2023-06-26T05:50:17;17.80;;;5.30;;
73850;SDS011;62190;51.548;5.688;2023-06-26T05:52:45;10.90;;;4.70;;
73850;SDS011;62190;51.548;5.688;2023-06-26T05:55:18;12.58;;;5.20;;
73850;SDS011;62190;51.548;5.688;2023-06-26T05:57:45;13.00;;;4.55;;
73850;SDS011;62190;51.548;5.688;2023-06-26T06:00:13;16.02;;;4.75;;
73850;SDS011;62190;51.548;5.688;2023-06-26T06:02:41;12.73;;;5.15;;
73850;SDS011;62190;51.548;5.688;2023-06-26T06:05:09;15.10;;;4.53;;
73850;SDS011;62190;51.548;5.688;2023-06-26T06:07:37;16.40;;;5.10;;
73850;SDS011;62190;51.548;5.688;2023-06-26T06:10:06;10.95;;;4.25;;
73850;SDS011;62190;51.548;5.688;2023-06-26T06:12:35;11.00;;;4.17;;
73850;SDS011;62190;51.548;5.688;2023-06-26T06:15:02;12.65;;;4.58;;
73850;SDS011;62190;51.548;5.688;2023-06-26T06:17:30;13.38;;;4.70;;
73850;SDS011;62190;51.548;5.688;2023-06-26T06:19:57;14.55;;;4.87;;
73850;SDS011;62190;51.548;5.688;2023-06-26T06:22:24;9.18;;;4.45;;
73850;SDS011;62190;51.548;5.688;2023-06-26T06:24:52;15.48;;;4.85;;
73850;SDS011;62190;51.548;5.688;2023-06-26T06:27:19;12.03;;;3.75;;
73850;SDS011;62190;51.548;5.688;2023-06-26T06:29:47;10.00;;;4.28;;
73850;SDS011;62190;51.548;5.688;2023-06-26T06:32:14;11.80;;;3.80;;
73850;SDS011;62190;51.548;5.688;2023-06-26T06:34:41;11.93;;;3.90;;
73850;SDS011;62190;51.548;5.688;2023-06-26T06:37:08;11.75;;;3.77;;
73850;SDS011;62190;51.548;5.688;2023-06-26T06:39:36;10.28;;;3.47;;
73850;SDS011;62190;51.548;5.688;2023-06-26T06:42:03;9.80;;;3.10;;
73850;SDS011;62190;51.548;5.688;2023-06-26T06:44:32;11.75;;;3.60;;
73850;SDS011;62190;51.548;5.688;2023-06-26T06:46:59;13.20;;;4.05;;
73850;SDS011;62190;51.548;5.688;2023-06-26T06:49:27;9.90;;;3.50;;
73850;SDS011;62190;51.548;5.688;2023-06-26T06:51:54;12.03;;;3.72;;
73850;SDS011;62190;51.548;5.688;2023-06-26T06:54:21;14.00;;;5.15;;
73850;SDS011;62190;51.548;5.688;2023-06-26T06:56:50;9.40;;;4.00;;
73850;SDS011;62190;51.548;5.688;2023-06-26T06:59:17;8.70;;;2.83;;
73850;SDS011;62190;51.548;5.688;2023-06-26T07:01:45;8.83;;;2.98;;
73850;SDS011;62190;51.548;5.688;2023-06-26T07:04:12;6.83;;;2.98;;
73850;SDS011;62190;51.548;5.688;2023-06-26T07:06:40;6.42;;;2.70;;
73850;SDS011;62190;51.548;5.688;2023-06-26T07:09:07;9.95;;;2.40;;
73850;SDS011;62190;51.548;5.688;2023-06-26T07:11:38;7.00;;;2.55;;
73850;SDS011;62190;51.548;5.688;2023-06-26T07:14:05;7.40;;;2.62;;
73850;SDS011;62190;51.548;5.688;2023-06-26T07:16:32;8.05;;;2.50;;
73850;SDS011;62190;51.548;5.688;2023-06-26T07:19:00;8.00;;;3.05;;
73850;SDS011;62190;51.548;5.688;2023-06-26T07:21:27;10.93;;;2.80;;
73850;SDS011;62190;51.548;5.688;2023-06-26T07:23:54;7.47;;;2.12;;
73850;SDS011;62190;51.548;5.688;2023-06-26T07:26:22;8.80;;;2.40;;
73850;SDS011;62190;51.548;5.688;2023-06-26T07:28:49;10.38;;;2.85;;
73850;SDS011;62190;51.548;5.688;2023-06-26T07:31:16;10.20;;;2.98;;
73850;SDS011;62190;51.548;5.688;2023-06-26T07:33:43;9.53;;;2.70;;
73850;SDS011;62190;51.548;5.688;2023-06-26T07:36:11;6.60;;;3.10;;
73850;SDS011;62190;51.548;5.688;2023-06-26T07:38:38;6.72;;;2.40;;
73850;SDS011;62190;51.548;5.688;2023-06-26T07:41:06;7.22;;;2.60;;
73850;SDS011;62190;51.548;5.688;2023-06-26T07:43:33;8.83;;;3.12;;
73850;SDS011;62190;51.548;5.688;2023-06-26T07:46:00;7.42;;;2.98;;
73850;SDS011;62190;51.548;5.688;2023-06-26T07:48:28;6.83;;;2.50;;
73850;SDS011;62190;51.548;5.688;2023-06-26T07:50:55;7.08;;;2.83;;
73850;SDS011;62190;51.548;5.688;2023-06-26T07:53:22;6.97;;;2.58;;
73850;SDS011;62190;51.548;5.688;2023-06-26T07:55:50;8.20;;;2.67;;
73850;SDS011;62190;51.548;5.688;2023-06-26T07:58:17;9.85;;;3.15;;
73850;SDS011;62190;51.548;5.688;2023-06-26T08:00:45;8.80;;;2.62;;
73850;SDS011;62190;51.548;5.688;2023-06-26T08:03:12;9.25;;;3.27;;
73850;SDS011;62190;51.548;5.688;2023-06-26T08:05:39;6.25;;;2.75;;
73850;SDS011;62190;51.548;5.688;2023-06-26T08:08:07;9.88;;;3.27;;
73850;SDS011;62190;51.548;5.688;2023-06-26T08:10:34;7.92;;;3.52;;
73850;SDS011;62190;51.548;5.688;2023-06-26T08:13:01;7.70;;;2.50;;
73850;SDS011;62190;51.548;5.688;2023-06-26T08:15:29;6.90;;;2.77;;
73850;SDS011;62190;51.548;5.688;2023-06-26T08:17:56;4.87;;;2.42;;
73850;SDS011;62190;51.548;5.688;2023-06-26T08:20:23;7.03;;;3.05;;
73850;SDS011;62190;51.548;5.688;2023-06-26T08:22:51;9.05;;;3.58;;
73850;SDS011;62190;51.548;5.688;2023-06-26T08:25:20;7.87;;;3.37;;
73850;SDS011;62190;51.548;5.688;2023-06-26T08:27:47;7.67;;;3.33;;
73850;SDS011;62190;51.548;5.688;2023-06-26T08:30:16;4.75;;;3.42;;
73850;SDS011;62190;51.548;5.688;2023-06-26T08:32:44;5.97;;;2.90;;
73850;SDS011;62190;51.548;5.688;2023-06-26T08:35:11;5.58;;;2.98;;
73850;SDS011;62190;51.548;5.688;2023-06-26T08:37:38;7.75;;;3.17;;
73850;SDS011;62190;51.548;5.688;2023-06-26T08:40:06;5.17;;;2.00;;
73850;SDS011;62190;51.548;5.688;2023-06-26T08:42:37;4.45;;;2.15;;
73850;SDS011;62190;51.548;5.688;2023-06-26T08:45:04;4.37;;;1.82;;
73850;SDS011;62190;51.548;5.688;2023-06-26T08:47:32;3.00;;;1.10;;
73850;SDS011;62190;51.548;5.688;2023-06-26T08:50:08;2.35;;;0.82;;
73850;SDS011;62190;51.548;5.688;2023-06-26T08:52:56;3.92;;;0.90;;
73850;SDS011;62190;51.548;5.688;2023-06-26T08:55:46;3.67;;;1.35;;
73850;SDS011;62190;51.548;5.688;2023-06-26T08:58:15;6.45;;;1.17;;
73850;SDS011;62190;51.548;5.688;2023-06-26T09:00:42;4.17;;;0.98;;
73850;SDS011;62190;51.548;5.688;2023-06-26T09:03:10;5.95;;;0.98;;
73850;SDS011;62190;51.548;5.688;2023-06-26T09:05:39;2.98;;;1.22;;
73850;SDS011;62190;51.548;5.688;2023-06-26T09:08:07;2.15;;;0.72;;
73850;SDS011;62190;51.548;5.688;2023-06-26T09:10:35;7.58;;;1.05;;
73850;SDS011;62190;51.548;5.688;2023-06-26T09:13:02;4.17;;;1.05;;
73850;SDS011;62190;51.548;5.688;2023-06-26T09:15:45;3.15;;;0.75;;
73850;SDS011;62190;51.548;5.688;2023-06-26T09:18:11;4.80;;;1.05;;
73850;SDS011;62190;51.548;5.688;2023-06-26T09:20:39;2.90;;;0.80;;
73850;SDS011;62190;51.548;5.688;2023-06-26T09:23:06;3.52;;;0.98;;
73850;SDS011;62190;51.548;5.688;2023-06-26T09:25:33;8.68;;;0.90;;
73850;SDS011;62190;51.548;5.688;2023-06-26T09:28:04;3.37;;;0.80;;
73850;SDS011;62190;51.548;5.688;2023-06-26T09:30:32;4.12;;;1.05;;
73850;SDS011;62190;51.548;5.688;2023-06-26T09:33:34;3.25;;;0.80;;
73850;SDS011;62190;51.548;5.688;2023-06-26T09:35:39;3.83;;;0.93;;
73850;SDS011;62190;51.548;5.688;2023-06-26T09:38:06;6.17;;;0.82;;
73850;SDS011;62190;51.548;5.688;2023-06-26T09:40:34;3.52;;;0.80;;
73850;SDS011;62190;51.548;5.688;2023-06-26T09:43:04;5.05;;;1.17;;
73850;SDS011;62190;51.548;5.688;2023-06-26T09:45:35;5.70;;;1.02;;
73850;SDS011;62190;51.548;5.688;2023-06-26T09:48:03;1.82;;;0.70;;
73850;SDS011;62190;51.548;5.688;2023-06-26T09:50:32;4.90;;;0.95;;
73850;SDS011;62190;51.548;5.688;2023-06-26T09:53:10;4.92;;;0.80;;
73850;SDS011;62190;51.548;5.688;2023-06-26T09:55:43;1.17;;;0.70;;
73850;SDS011;62190;51.548;5.688;2023-06-26T09:58:11;2.65;;;0.75;;
73850;SDS011;62190;51.548;5.688;2023-06-26T10:00:43;3.95;;;0.70;;
73850;SDS011;62190;51.548;5.688;2023-06-26T10:03:10;2.90;;;0.75;;
73850;SDS011;62190;51.548;5.688;2023-06-26T10:05:40;2.65;;;0.60;;
73850;SDS011;62190;51.548;5.688;2023-06-26T10:08:10;2.52;;;0.72;;
73850;SDS011;62190;51.548;5.688;2023-06-26T10:10:39;3.60;;;0.60;;
73850;SDS011;62190;51.548;5.688;2023-06-26T10:13:11;5.95;;;0.70;;
73850;SDS011;62190;51.548;5.688;2023-06-26T10:15:40;4.85;;;0.60;;
73850;SDS011;62190;51.548;5.688;2023-06-26T10:18:10;2.40;;;0.80;;
73850;SDS011;62190;51.548;5.688;2023-06-26T10:20:39;2.33;;;0.62;;
73850;SDS011;62190;51.548;5.688;2023-06-26T10:23:07;3.52;;;0.70;;
73850;SDS011;62190;51.548;5.688;2023-06-26T10:25:34;2.17;;;0.60;;
73850;SDS011;62190;51.548;5.688;2023-06-26T10:28:04;3.83;;;0.75;;
73850;SDS011;62190;51.548;5.688;2023-06-26T10:30:33;2.95;;;0.60;;
73850;SDS011;62190;51.548;5.688;2023-06-26T10:33:02;1.50;;;0.60;;
73850;SDS011;62190;51.548;5.688;2023-06-26T10:35:31;2.60;;;0.78;;
73850;SDS011;62190;51.548;5.688;2023-06-26T10:38:01;4.22;;;0.80;;
73850;SDS011;62190;51.548;5.688;2023-06-26T10:40:42;3.37;;;0.60;;
73850;SDS011;62190;51.548;5.688;2023-06-26T10:43:15;3.55;;;0.70;;
73850;SDS011;62190;51.548;5.688;2023-06-26T10:45:47;3.40;;;0.80;;
73850;SDS011;62190;51.548;5.688;2023-06-26T10:48:20;3.30;;;0.60;;
73850;SDS011;62190;51.548;5.688;2023-06-26T10:50:48;2.60;;;0.75;;
73850;SDS011;62190;51.548;5.688;2023-06-26T10:55:56;3.45;;;0.60;;
73850;SDS011;62190;51.548;5.688;2023-06-26T10:58:29;2.45;;;0.78;;
73850;SDS011;62190;51.548;5.688;2023-06-26T11:01:23;3.02;;;0.70;;
73850;SDS011;62190;51.548;5.688;2023-06-26T11:04:00;4.22;;;0.70;;
73850;SDS011;62190;51.548;5.688;2023-06-26T11:06:30;3.80;;;0.75;;
73850;SDS011;62190;51.548;5.688;2023-06-26T11:09:06;3.60;;;0.65;;
73850;SDS011;62190;51.548;5.688;2023-06-26T11:12:41;2.35;;;0.70;;
73850;SDS011;62190;51.548;5.688;2023-06-26T11:14:25;5.40;;;0.65;;
73850;SDS011;62190;51.548;5.688;2023-06-26T11:16:55;1.60;;;0.50;;
73850;SDS011;62190;51.548;5.688;2023-06-26T11:19:24;2.77;;;0.72;;
73850;SDS011;62190;51.548;5.688;2023-06-26T11:21:58;3.52;;;0.85;;
73850;SDS011;62190;51.548;5.688;2023-06-26T11:24:26;2.67;;;0.65;;
73850;SDS011;62190;51.548;5.688;2023-06-26T11:26:53;2.92;;;0.80;;
73850;SDS011;62190;51.548;5.688;2023-06-26T11:29:21;2.65;;;0.60;;
73850;SDS011;62190;51.548;5.688;2023-06-26T11:31:55;2.27;;;0.70;;
73850;SDS011;62190;51.548;5.688;2023-06-26T11:34:19;1.98;;;0.88;;
73850;SDS011;62190;51.548;5.688;2023-06-26T11:36:48;2.90;;;0.80;;
73850;SDS011;62190;51.548;5.688;2023-06-26T11:39:16;2.40;;;0.70;;
73850;SDS011;62190;51.548;5.688;2023-06-26T11:41:44;2.15;;;0.68;;
73850;SDS011;62190;51.548;5.688;2023-06-26T11:44:12;3.85;;;1.20;;
73850;SDS011;62190;51.548;5.688;2023-06-26T11:46:43;2.17;;;0.70;;
73850;SDS011;62190;51.548;5.688;2023-06-26T11:49:11;2.15;;;0.85;;
73850;SDS011;62190;51.548;5.688;2023-06-26T11:51:38;3.45;;;0.90;;
73850;SDS011;62190;51.548;5.688;2023-06-26T11:54:08;1.95;;;0.57;;
73850;SDS011;62190;51.548;5.688;2023-06-26T11:56:38;4.97;;;0.80;;
73850;SDS011;62190;51.548;5.688;2023-06-26T11:59:10;4.15;;;1.02;;
73850;SDS011;62190;51.548;5.688;2023-06-26T12:01:39;2.92;;;0.75;;
73850;SDS011;62190;51.548;5.688;2023-06-26T12:04:11;4.08;;;0.80;;
73850;SDS011;62190;51.548;5.688;2023-06-26T12:06:41;3.65;;;0.70;;
73850;SDS011;62190;51.548;5.688;2023-06-26T12:09:10;5.12;;;1.02;;
73850;SDS011;62190;51.548;5.688;2023-06-26T12:11:38;3.15;;;0.95;;
73850;SDS011;62190;51.548;5.688;2023-06-26T12:14:07;1.52;;;0.50;;
73850;SDS011;62190;51.548;5.688;2023-06-26T12:16:35;1.32;;;0.55;;
73850;SDS011;62190;51.548;5.688;2023-06-26T12:19:05;2.02;;;0.60;;
73850;SDS011;62190;51.548;5.688;2023-06-26T12:24:08;2.45;;;0.80;;
73850;SDS011;62190;51.548;5.688;2023-06-26T12:26:36;3.87;;;0.80;;
73850;SDS011;62190;51.548;5.688;2023-06-26T12:29:07;2.90;;;1.10;;
73850;SDS011;62190;51.548;5.688;2023-06-26T12:31:39;3.17;;;0.80;;
73850;SDS011;62190;51.548;5.688;2023-06-26T12:34:10;2.45;;;0.72;;
73850;SDS011;62190;51.548;5.688;2023-06-26T12:36:45;1.85;;;0.50;;
73850;SDS011;62190;51.548;5.688;2023-06-26T12:39:11;2.60;;;0.80;;
73850;SDS011;62190;51.548;5.688;2023-06-26T12:41:54;3.08;;;1.10;;
73850;SDS011;62190;51.548;5.688;2023-06-26T12:44:29;2.92;;;0.90;;
73850;SDS011;62190;51.548;5.688;2023-06-26T12:46:59;2.35;;;0.70;;
73850;SDS011;62190;51.548;5.688;2023-06-26T12:52:06;1.32;;;0.60;;
73850;SDS011;62190;51.548;5.688;2023-06-26T12:54:35;3.70;;;0.60;;
73850;SDS011;62190;51.548;5.688;2023-06-26T12:57:05;3.92;;;0.80;;
73850;SDS011;62190;51.548;5.688;2023-06-26T12:59:34;4.03;;;0.80;;
73850;SDS011;62190;51.548;5.688;2023-06-26T13:02:04;2.87;;;0.62;;
73850;SDS011;62190;51.548;5.688;2023-06-26T13:04:34;2.55;;;0.70;;
73850;SDS011;62190;51.548;5.688;2023-06-26T13:07:02;0.85;;;0.47;;
73850;SDS011;62190;51.548;5.688;2023-06-26T13:09:31;1.90;;;0.70;;
73850;SDS011;62190;51.548;5.688;2023-06-26T13:11:59;3.50;;;0.75;;
73850;SDS011;62190;51.548;5.688;2023-06-26T13:14:29;3.92;;;0.80;;
73850;SDS011;62190;51.548;5.688;2023-06-26T13:16:57;1.98;;;0.55;;
73850;SDS011;62190;51.548;5.688;2023-06-26T13:19:26;2.60;;;0.78;;
73850;SDS011;62190;51.548;5.688;2023-06-26T13:21:54;1.70;;;0.55;;
73850;SDS011;62190;51.548;5.688;2023-06-26T13:24:21;1.90;;;0.68;;
73850;SDS011;62190;51.548;5.688;2023-06-26T13:26:48;2.70;;;0.60;;
73850;SDS011;62190;51.548;5.688;2023-06-26T13:29:17;1.37;;;0.50;;
73850;SDS011;62190;51.548;5.688;2023-06-26T13:31:54;1.40;;;0.40;;
73850;SDS011;62190;51.548;5.688;2023-06-26T13:34:20;2.72;;;0.60;;
73850;SDS011;62190;51.548;5.688;2023-06-26T13:36:48;1.65;;;0.40;;
73850;SDS011;62190;51.548;5.688;2023-06-26T13:39:16;2.20;;;0.50;;
73850;SDS011;62190;51.548;5.688;2023-06-26T13:41:43;3.08;;;0.68;;
73850;SDS011;62190;51.548;5.688;2023-06-26T13:44:11;4.15;;;0.72;;
73850;SDS011;62190;51.548;5.688;2023-06-26T13:46:39;3.27;;;0.60;;
73850;SDS011;62190;51.548;5.688;2023-06-26T13:49:06;1.75;;;0.72;;
73850;SDS011;62190;51.548;5.688;2023-06-26T13:51:33;1.25;;;0.50;;
73850;SDS011;62190;51.548;5.688;2023-06-26T13:54:00;1.60;;;0.55;;
73850;SDS011;62190;51.548;5.688;2023-06-26T13:56:28;3.87;;;0.85;;
73850;SDS011;62190;51.548;5.688;2023-06-26T13:58:56;1.00;;;0.60;;
73850;SDS011;62190;51.548;5.688;2023-06-26T14:01:24;1.55;;;0.50;;
73850;SDS011;62190;51.548;5.688;2023-06-26T14:03:51;4.20;;;0.85;;
73850;SDS011;62190;51.548;5.688;2023-06-26T14:06:18;2.15;;;0.62;;
73850;SDS011;62190;51.548;5.688;2023-06-26T14:08:46;2.45;;;0.50;;
73850;SDS011;62190;51.548;5.688;2023-06-26T14:11:13;1.05;;;0.50;;
73850;SDS011;62190;51.548;5.688;2023-06-26T14:13:41;5.72;;;1.00;;
73850;SDS011;62190;51.548;5.688;2023-06-26T14:16:08;1.60;;;0.57;;
73850;SDS011;62190;51.548;5.688;2023-06-26T14:18:36;3.55;;;0.60;;
73850;SDS011;62190;51.548;5.688;2023-06-26T14:21:03;1.57;;;0.60;;
73850;SDS011;62190;51.548;5.688;2023-06-26T14:23:31;1.87;;;0.70;;
73850;SDS011;62190;51.548;5.688;2023-06-26T14:25:58;3.52;;;0.65;;
73850;SDS011;62190;51.548;5.688;2023-06-26T14:28:25;3.87;;;0.78;;
73850;SDS011;62190;51.548;5.688;2023-06-26T14:30:53;1.62;;;0.60;;
73850;SDS011;62190;51.548;5.688;2023-06-26T14:33:20;1.25;;;0.65;;
73850;SDS011;62190;51.548;5.688;2023-06-26T14:35:47;1.37;;;0.60;;
73850;SDS011;62190;51.548;5.688;2023-06-26T14:38:15;1.87;;;0.68;;
73850;SDS011;62190;51.548;5.688;2023-06-26T14:40:42;1.57;;;0.50;;
73850;SDS011;62190;51.548;5.688;2023-06-26T14:43:09;1.65;;;0.57;;
73850;SDS011;62190;51.548;5.688;2023-06-26T14:45:37;1.67;;;0.60;;
73850;SDS011;62190;51.548;5.688;2023-06-26T14:48:04;5.53;;;0.95;;
73850;SDS011;62190;51.548;5.688;2023-06-26T14:50:31;2.15;;;0.57;;
73850;SDS011;62190;51.548;5.688;2023-06-26T14:52:59;1.55;;;0.70;;
73850;SDS011;62190;51.548;5.688;2023-06-26T14:55:26;2.60;;;1.02;;
73850;SDS011;62190;51.548;5.688;2023-06-26T14:57:53;2.20;;;0.50;;
73850;SDS011;62190;51.548;5.688;2023-06-26T15:00:22;1.22;;;0.65;;
73850;SDS011;62190;51.548;5.688;2023-06-26T15:02:50;3.20;;;1.40;;